Time;durP1;ratioP1;P1;durP2;ratioP2;P2;SDS_P1;SDS_P2;PMS_P1;PMS_P2;Temp;Humidity;BMP_temperature;BMP_pressure;BME280_temperature;BME280_humidity;BME280_pressure;Samples;Min_cycle;Max_cycle;Signal;HPM_P1;HPM_P2
2023/01/22 07:35:32;;;;;;;1.97;1.87;;;2.10;99.90;3.70;102970.00;;;;5065497;28;20235;-74
2023/01/22 07:37:59;;;;;;;3.40;2.27;;;2.20;99.90;3.20;102975.00;;;;5073867;28;20197;-74
2023/01/22 07:40:25;;;;;;;5.17;3.23;;;2.20;99.90;3.40;102981.00;;;;5074848;28;20280;-74
2023/01/22 07:42:53;;;;;;;2.13;1.50;;;2.20;99.90;3.50;102968.00;;;;5074384;28;20268;-74
2023/01/22 07:45:20;;;;;;;2.03;1.80;;;2.20;99.90;3.10;102947.00;;;;5057907;28;20186;-74
2023/01/22 07:47:54;;;;;;;1.23;0.60;;;2.10;99.90;3.50;102976.00;;;;5071410;28;20193;-74
2023/01/22 07:50:29;;;;;;;5.83;3.67;;;2.20;99.90;3.30;102989.00;;;;5041176;28;20200;-74
2023/01/22 07:52:55;;;;;;;2.97;2.77;;;2.10;99.90;2.80;102994.00;;;;5050644;28;20212;-74
2023/01/22 07:55:22;;;;;;;2.40;2.20;;;2.00;99.90;3.10;102998.00;;;;5074237;28;20547;-74
2023/01/22 07:58:30;;;;;;;1.27;1.00;;;2.10;99.90;3.10;103009.00;;;;5072003;28;20532;-74
2023/01/22 08:00:56;;;;;;;3.27;3.07;;;2.00;99.90;3.00;103002.00;;;;5050278;28;20191;-74
2023/01/22 08:03:21;;;;;;;5.00;3.10;;;2.10;99.90;2.40;103007.00;;;;5074761;28;20205;-74
2023/01/22 08:05:47;;;;;;;3.13;2.03;;;1.90;99.90;2.70;103001.00;;;;5073633;28;20202;-74
2023/01/22 08:08:17;;;;;;;1.17;1.13;;;1.70;99.90;2.70;103014.00;;;;5073894;28;20197;-73
2023/01/22 08:10:43;;;;;;;4.13;3.10;;;1.80;99.90;3.00;103012.00;;;;5041016;28;20667;-74
2023/01/22 08:13:09;;;;;;;5.93;5.30;;;1.90;99.90;2.60;103012.00;;;;5057548;28;20669;-73
2023/01/22 08:15:36;;;;;;;0.90;0.90;;;1.80;99.90;2.80;103007.00;;;;5074491;28;20190;-73
2023/01/22 08:18:02;;;;;;;2.23;1.97;;;1.90;99.90;2.80;103018.00;;;;5057340;28;20276;-73
2023/01/22 08:20:28;;;;;;;5.97;4.03;;;1.80;99.90;2.30;103014.00;;;;5057056;28;20204;-71
2023/01/22 08:22:59;;;;;;;1.50;1.13;;;1.80;99.90;2.40;103020.00;;;;5053655;28;20201;-72
2023/01/22 08:25:30;;;;;;;2.07;1.87;;;1.70;99.90;2.90;103026.00;;;;5050031;28;20272;-73
2023/01/22 08:27:56;;;;;;;6.20;3.80;;;1.80;99.90;2.60;103017.00;;;;5056736;28;20194;-73
2023/01/22 08:30:22;;;;;;;3.93;3.60;;;1.80;99.90;2.60;103020.00;;;;5059495;28;20208;-73
2023/01/22 08:32:50;;;;;;;3.40;2.87;;;1.80;99.90;2.70;103022.00;;;;5048336;28;20690;-73
2023/01/22 08:35:15;;;;;;;2.43;2.00;;;1.80;99.90;2.80;103000.00;;;;5058178;28;20596;-73
2023/01/22 08:37:42;;;;;;;6.97;3.40;;;1.80;99.90;3.00;103021.00;;;;5056929;28;20201;-73
2023/01/22 08:40:10;;;;;;;2.17;1.97;;;1.80;99.90;3.00;103033.00;;;;5054720;28;20201;-74
2023/01/22 08:42:36;;;;;;;2.97;2.47;;;1.80;99.90;2.70;103029.00;;;;5075361;28;20193;-73
2023/01/22 08:45:03;;;;;;;1.10;1.10;;;1.80;99.90;2.80;103023.00;;;;5059553;28;20204;-73
2023/01/22 08:47:29;;;;;;;1.03;1.03;;;1.80;99.90;3.60;103027.00;;;;5062900;28;20206;-73
2023/01/22 08:49:57;;;;;;;1.07;0.63;;;1.90;99.90;3.20;103042.00;;;;5054903;28;20201;-73
2023/01/22 08:52:25;;;;;;;0.57;0.50;;;2.10;99.90;3.00;103032.00;;;;5065971;28;20214;-73
2023/01/22 08:54:51;;;;;;;1.43;1.33;;;1.90;99.90;3.30;103038.00;;;;5070196;28;20204;-73
2023/01/22 08:57:17;;;;;;;0.90;0.87;;;2.00;99.90;2.70;103033.00;;;;5074379;28;20185;-73
2023/01/22 08:59:46;;;;;;;2.10;1.80;;;1.80;99.90;3.10;103053.00;;;;5056626;28;20192;-73
2023/01/22 09:02:13;;;;;;;2.23;1.93;;;1.90;99.90;2.10;103047.00;;;;5072607;28;20670;-73
2023/01/22 09:04:39;;;;;;;1.90;1.80;;;1.70;99.90;2.50;102996.00;;;;5051848;28;20194;-73
2023/01/22 09:07:05;;;;;;;2.40;2.20;;;1.60;99.90;2.80;103046.00;;;;5056403;28;20194;-73
2023/01/22 09:09:34;;;;;;;0.80;0.80;;;1.70;99.90;2.70;103047.00;;;;5055349;28;20197;-73
2023/01/22 09:12:00;;;;;;;1.83;1.67;;;1.70;99.90;2.50;103047.00;;;;5054153;28;20213;-73
2023/01/22 09:14:26;;;;;;;1.97;1.60;;;1.70;99.90;2.70;103026.00;;;;5052919;28;20190;-74
2023/01/22 09:16:52;;;;;;;1.90;1.80;;;1.80;99.90;2.70;103035.00;;;;5056837;28;20194;-73
2023/01/22 09:19:20;;;;;;;1.77;1.73;;;1.70;99.90;3.20;103047.00;;;;5054362;28;20625;-73
2023/01/22 09:21:46;;;;;;;1.77;1.10;;;1.90;99.90;2.70;103008.00;;;;5056527;28;20220;-73
2023/01/22 09:24:12;;;;;;;3.03;2.80;;;1.80;99.90;2.80;103035.00;;;;5072472;28;20213;-75
2023/01/22 09:26:39;;;;;;;1.33;1.23;;;1.80;99.90;2.90;103040.00;;;;5072799;28;20190;-74
2023/01/22 09:29:05;;;;;;;1.47;1.37;;;1.80;99.90;2.80;103031.00;;;;5061493;28;20213;-74
2023/01/22 09:31:33;;;;;;;5.00;3.07;;;1.80;99.90;2.90;103028.00;;;;5056923;28;20193;-74
2023/01/22 09:34:03;;;;;;;0.83;0.83;;;1.80;99.90;3.00;103034.00;;;;5068391;28;20205;-74
2023/01/22 09:37:13;;;;;;;2.10;2.00;;;1.80;99.90;3.00;103043.00;;;;5069064;28;20213;-74
2023/01/22 09:39:39;;;;;;;1.77;1.67;;;1.90;99.90;2.80;103038.00;;;;5055652;28;20197;-70
2023/01/22 09:42:11;;;;;;;1.97;1.87;;;1.80;99.90;2.90;103051.00;;;;5073642;28;20652;-71
2023/01/22 09:44:52;;;;;;;2.57;1.97;;;1.80;99.90;2.70;103066.00;;;;5061909;28;20239;-73
2023/01/22 09:47:35;;;;;;;1.90;1.50;;;1.90;99.90;2.80;103035.00;;;;5072281;28;20190;-73
2023/01/22 09:50:19;;;;;;;5.80;3.50;;;1.90;99.90;2.60;103062.00;;;;5073304;28;20192;-71
2023/01/22 09:52:50;;;;;;;0.60;0.57;;;1.80;99.90;2.70;103043.00;;;;5055665;28;20320;-69
2023/01/22 09:55:20;;;;;;;0.80;0.73;;;1.70;99.90;2.60;103017.00;;;;5054769;28;20193;-72
2023/01/22 09:57:50;;;;;;;0.83;0.83;;;1.70;99.90;3.30;103053.00;;;;5062125;28;20636;-69
2023/01/22 10:00:23;;;;;;;1.70;1.57;;;1.80;99.90;3.10;103068.00;;;;5071922;28;20196;-71
2023/01/22 10:02:56;;;;;;;0.43;0.43;;;1.90;99.90;3.30;103065.00;;;;5070703;28;20197;-69
2023/01/22 10:05:50;;;;;;;1.97;1.87;;;2.00;99.90;3.60;103036.00;;;;5071676;28;20251;-72
2023/01/22 10:08:21;;;;;;;2.27;2.17;;;2.20;99.90;3.30;103067.00;;;;5061533;28;20583;-71
2023/01/22 10:10:47;;;;;;;2.50;1.70;;;2.10;99.90;3.40;103021.00;;;;5072276;28;20285;-71
2023/01/22 10:13:20;;;;;;;1.10;0.93;;;2.10;99.90;3.10;103067.00;;;;5060121;28;20289;-71
2023/01/22 10:15:52;;;;;;;1.87;1.10;;;2.10;99.90;3.20;103046.00;;;;5073051;28;20189;-72
2023/01/22 10:18:45;;;;;;;3.90;2.10;;;2.10;99.90;3.00;103062.00;;;;5072540;28;20194;-72
2023/01/22 10:33:27;;;;;;;1.93;1.77;;;1.50;99.90;2.70;102978.00;;;;5070093;28;20547;-72
2023/01/22 10:36:13;;;;;;;4.40;2.43;;;1.80;99.90;3.20;103022.00;;;;5045937;28;20244;-69
2023/01/22 10:38:39;;;;;;;1.00;1.00;;;1.90;99.90;3.10;103029.00;;;;5065688;28;20273;-69
2023/01/22 10:41:20;;;;;;;4.87;3.00;;;2.00;99.90;3.00;103032.00;;;;5048070;28;20269;-69
2023/01/22 10:43:49;;;;;;;1.07;1.07;;;2.10;99.90;3.20;103033.00;;;;5044438;28;20214;-69
2023/01/22 10:46:23;;;;;;;4.07;3.10;;;2.10;99.90;3.30;103036.00;;;;5049465;28;20232;-69
2023/01/22 10:49:00;;;;;;;0.80;0.80;;;2.20;99.90;4.50;103043.00;;;;5048937;28;20232;-69
2023/01/22 10:52:03;;;;;;;2.03;1.93;;;2.60;99.90;3.30;103050.00;;;;5044910;28;20240;-69
2023/01/22 10:54:38;;;;;;;0.43;0.43;;;2.50;99.90;3.50;103043.00;;;;5048711;28;20178;-69
2023/01/22 10:57:34;;;;;;;4.93;3.50;;;2.20;99.90;3.40;103012.00;;;;5048561;28;20190;-69
2023/01/22 11:00:22;;;;;;;1.53;1.43;;;2.20;99.90;2.90;103040.00;;;;5071882;28;20193;-69
2023/01/22 11:02:49;;;;;;;2.13;1.93;;;2.20;99.90;3.90;103040.00;;;;5048223;28;20700;-69
2023/01/22 11:06:07;;;;;;;0.30;0.30;;;2.30;99.90;5.00;103048.00;;;;5048141;28;20562;-79
2023/01/22 11:08:47;;;;;;;4.03;3.13;;;2.80;99.90;4.60;103070.00;;;;5039706;28;20192;-78
2023/01/22 11:11:17;;;;;;;0.97;0.93;;;3.00;99.90;4.00;103064.00;;;;5028521;28;20277;-66
2023/01/22 11:14:00;;;;;;;0.83;0.83;;;2.80;99.90;4.40;103064.00;;;;5079779;28;20661;-65
2023/01/22 11:17:10;;;;;;;2.30;1.17;;;2.90;99.90;4.00;103058.00;;;;5044535;28;20288;-65
2023/01/22 11:20:18;;;;;;;2.50;2.30;;;2.90;99.90;3.30;103036.00;;;;5026226;28;20598;-66
2023/01/22 11:23:09;;;;;;;1.10;1.00;;;2.50;99.90;4.20;103047.00;;;;5040517;28;20213;-66
2023/01/22 11:26:00;;;;;;;0.87;0.87;;;2.60;99.90;4.50;103046.00;;;;5049107;28;20283;-66
2023/01/22 11:29:29;;;;;;;1.60;1.07;;;2.90;99.90;5.00;103062.00;;;;5038020;28;20272;-66
2023/01/22 11:32:47;;;;;;;0.50;0.50;;;3.30;99.90;4.20;103047.00;;;;5046829;28;20233;-66
2023/01/22 11:35:44;;;;;;;3.30;2.10;;;2.90;99.90;4.10;103034.00;;;;5026701;28;20194;-65
2023/01/22 11:38:18;;;;;;;2.33;1.33;;;2.70;99.90;3.60;103035.00;;;;5049072;28;20186;-65
2023/01/22 11:41:19;;;;;;;1.27;1.27;;;2.60;99.90;4.30;103037.00;;;;5040692;28;20221;-66
2023/01/22 11:44:06;;;;;;;0.40;0.40;;;2.70;99.90;3.90;103032.00;;;;5040234;28;20175;-66
2023/01/22 11:46:47;;;;;;;2.50;2.30;;;2.60;99.90;3.80;102991.00;;;;5043356;28;20187;-66
2023/01/22 11:49:31;;;;;;;1.60;1.50;;;2.60;99.90;3.50;103019.00;;;;5034730;28;20182;-66
2023/01/22 11:52:12;;;;;;;2.23;1.50;;;2.50;99.90;3.50;102996.00;;;;5040871;28;20202;-66
2023/01/22 11:54:51;;;;;;;1.90;0.80;;;2.50;99.90;4.10;103017.00;;;;5014610;28;20187;-66
2023/01/22 11:57:32;;;;;;;3.77;2.40;;;2.60;99.90;4.40;103022.00;;;;5039922;28;20218;-66
2023/01/22 12:00:19;;;;;;;2.47;2.37;;;2.90;99.90;4.30;103034.00;;;;5034215;28;20634;-67
2023/01/22 12:03:13;;;;;;;1.47;1.37;;;2.80;99.90;3.90;103029.00;;;;5034913;28;20199;-66
2023/01/22 12:06:11;;;;;;;1.17;1.17;;;2.70;99.90;4.90;103028.00;;;;5017323;28;20198;-66
2023/01/22 12:08:56;;;;;;;1.13;1.07;;;3.00;99.90;3.80;103039.00;;;;5029545;28;20214;-66
2023/01/22 12:12:06;;;;;;;0.87;0.87;;;3.00;99.90;4.40;103042.00;;;;5041018;28;20210;-66
2023/01/22 12:14:46;;;;;;;1.67;1.53;;;3.00;99.90;4.70;103052.00;;;;5034264;28;20215;-66
2023/01/22 12:17:45;;;;;;;0.20;0.20;;;3.10;99.90;4.30;103037.00;;;;5035222;28;20190;-66
2023/01/22 12:20:34;;;;;;;0.80;0.80;;;2.90;99.90;4.10;102983.00;;;;5035849;28;20199;-66
2023/01/22 12:23:48;;;;;;;0.83;0.83;;;2.70;99.90;4.80;103031.00;;;;5039763;28;20199;-67
2023/01/22 12:26:22;;;;;;;0.50;0.50;;;2.90;99.90;4.70;103031.00;;;;5033413;28;20190;-66
2023/01/22 12:29:02;;;;;;;0.80;0.80;;;3.10;99.90;4.90;103026.00;;;;5034033;28;20241;-66
2023/01/22 12:32:20;;;;;;;0.57;0.57;;;3.10;99.90;5.80;103025.00;;;;5038256;28;20211;-66
2023/01/22 12:34:52;;;;;;;0.80;0.80;;;3.50;99.90;5.50;103032.00;;;;5017064;28;20222;-66
2023/01/22 12:37:27;;;;;;;3.30;1.33;;;3.60;99.90;5.40;103033.00;;;;5034273;28;20277;-66
2023/01/22 12:40:23;;;;;;;0.67;0.67;;;3.60;99.90;6.00;103042.00;;;;5013573;28;20205;-66
2023/01/22 12:43:00;;;;;;;1.60;1.33;;;3.70;99.90;5.40;103046.00;;;;5033281;28;20187;-66
2023/01/22 12:46:15;;;;;;;0.20;0.20;;;3.70;99.90;5.00;103040.00;;;;5032190;28;20194;-66
2023/01/22 12:49:07;;;;;;;2.70;1.77;;;3.40;99.90;4.50;103026.00;;;;5017292;28;20191;-66
2023/01/22 12:51:47;;;;;;;0.47;0.47;;;3.20;99.90;4.40;103019.00;;;;5033241;28;20206;-66
2023/01/22 12:54:31;;;;;;;0.73;0.73;;;3.20;99.90;4.50;103016.00;;;;5048393;28;20246;-66
2023/01/22 13:04:05;;;;;;;3.03;2.77;;;2.90;99.90;4.80;103016.00;;;;5026897;28;20215;-66
2023/01/22 13:06:49;;;;;;;0.40;0.40;;;3.20;99.90;4.20;102971.00;;;;5032969;28;20198;-66
2023/01/22 13:10:21;;;;;;;0.63;0.63;;;3.00;99.90;5.10;102996.00;;;;5033442;28;20573;-66
2023/01/22 13:13:31;;;;;;;0.87;0.87;;;3.00;99.90;4.50;102992.00;;;;5029416;28;20267;-67
2023/01/22 13:16:58;;;;;;;2.53;2.33;;;3.00;99.90;3.90;102998.00;;;;5032685;28;20182;-66
2023/01/22 13:23:47;;;;;;;1.27;1.17;;;2.90;99.90;4.20;103005.00;;;;5033580;28;20596;-66
2023/01/22 13:27:23;;;;;;;0.37;0.37;;;3.00;99.90;4.30;103001.00;;;;5031739;28;20202;-66
2023/01/22 13:30:36;;;;;;;1.80;1.70;;;2.90;99.90;4.40;103005.00;;;;5033035;28;20275;-66
2023/01/22 13:33:43;;;;;;;0.50;0.50;;;3.10;99.90;5.00;102998.00;;;;5027932;28;20218;-66
2023/01/22 13:40:29;;;;;;;0.30;0.30;;;3.30;99.90;5.40;103001.00;;;;5032293;28;20202;-66
2023/01/22 13:43:33;;;;;;;2.00;0.93;;;3.30;99.90;4.00;103013.00;;;;5033427;28;20239;-66
2023/01/22 13:46:52;;;;;;;2.40;1.30;;;3.10;99.90;4.90;103009.00;;;;5031069;28;20170;-66
2023/01/22 13:49:59;;;;;;;0.40;0.40;;;3.30;99.90;5.00;103008.00;;;;5032094;28;20214;-66
2023/01/22 13:53:21;;;;;;;0.73;0.73;;;3.30;99.90;4.90;103010.00;;;;5025314;28;20779;-66
2023/01/22 13:56:33;;;;;;;1.90;1.80;;;3.40;99.90;5.10;103024.00;;;;5026911;28;20185;-66
2023/01/22 13:59:37;;;;;;;0.90;0.90;;;3.30;99.90;4.50;103021.00;;;;5060140;28;20684;-66
2023/01/22 14:02:46;;;;;;;0.57;0.57;;;3.20;99.90;5.30;103024.00;;;;5020362;28;20210;-66
2023/01/22 14:06:21;;;;;;;2.10;1.90;;;3.20;99.90;5.30;103033.00;;;;5021980;28;20207;-66
2023/01/22 14:09:52;;;;;;;1.27;1.27;;;3.50;99.90;5.10;103038.00;;;;5031947;28;20595;-66
2023/01/22 14:13:11;;;;;;;0.80;0.80;;;3.60;99.90;4.80;102979.00;;;;5027970;28;20272;-66
2023/01/22 14:16:38;;;;;;;0.77;0.77;;;3.20;99.90;5.10;102999.00;;;;5030735;28;20231;-66
2023/01/22 14:20:00;;;;;;;3.70;3.10;;;3.40;99.90;4.20;103020.00;;;;5022525;28;20190;-66
2023/01/22 14:23:21;;;;;;;1.47;1.43;;;3.30;99.90;4.20;103019.00;;;;5034768;28;20191;-66
2023/01/22 14:26:40;;;;;;;0.40;0.40;;;3.00;99.90;4.80;103020.00;;;;5022074;28;20195;-66
2023/01/22 14:33:46;;;;;;;1.80;1.60;;;3.30;99.90;4.20;103042.00;;;;5030113;28;20226;-66
2023/01/22 14:36:32;;;;;;;5.10;3.23;;;3.20;99.90;4.40;103039.00;;;;5032350;28;20197;-66
2023/01/22 14:39:56;;;;;;;1.57;1.47;;;3.00;99.90;3.90;103030.00;;;;5030928;28;20859;-66
2023/01/22 14:43:02;;;;;;;1.17;1.07;;;2.90;99.90;4.90;103043.00;;;;5032598;28;20187;-73
2023/01/22 14:45:28;;;;;;;3.50;0.93;;;3.10;99.90;4.50;103042.00;;;;5031190;28;20182;-66
2023/01/22 14:47:54;;;;;;;5.63;3.13;;;3.20;99.90;3.80;103035.00;;;;5031273;28;20182;-66
2023/01/22 14:50:44;;;;;;;1.83;1.70;;;3.00;99.90;4.60;103043.00;;;;5014540;28;20243;-67
2023/01/22 14:53:18;;;;;;;1.80;1.60;;;3.20;99.90;4.20;103035.00;;;;5029839;28;20252;-67
2023/01/22 14:55:44;;;;;;;2.23;2.13;;;3.00;99.90;4.10;103041.00;;;;5032677;28;20634;-67
2023/01/22 14:58:11;;;;;;;1.80;1.70;;;3.00;99.90;5.20;103046.00;;;;5039909;28;20186;-67
2023/01/22 15:00:38;;;;;;;4.80;4.40;;;3.20;99.90;5.50;103057.00;;;;5038279;28;20186;-67
2023/01/22 15:03:10;;;;;;;3.03;2.83;;;3.60;99.90;4.80;103047.00;;;;5071231;28;20527;-67
2023/01/22 15:05:35;;;;;;;2.57;2.00;;;3.40;99.90;5.20;103040.00;;;;5030682;28;20186;-67
2023/01/22 15:08:01;;;;;;;2.43;2.30;;;3.40;99.90;4.50;103055.00;;;;5033089;28;20638;-67
2023/01/22 15:10:28;;;;;;;4.00;2.60;;;3.30;99.90;4.00;103049.00;;;;5031313;28;20278;-67
2023/01/22 15:12:54;;;;;;;0.53;0.53;;;3.10;99.90;4.20;103047.00;;;;5035895;28;20292;-67
2023/01/22 15:15:27;;;;;;;2.80;2.30;;;3.00;99.90;4.10;103023.00;;;;5014570;28;20270;-67
2023/01/22 15:17:55;;;;;;;3.17;2.97;;;3.00;99.90;4.10;103004.00;;;;5047763;28;20179;-67
2023/01/22 15:20:21;;;;;;;2.93;2.73;;;2.90;99.90;4.10;103036.00;;;;5034517;28;20194;-67
2023/01/22 15:22:51;;;;;;;1.57;1.50;;;3.00;99.90;4.20;103047.00;;;;5036506;28;20201;-67
2023/01/22 15:25:55;;;;;;;0.47;0.47;;;3.10;99.90;4.80;103005.00;;;;5034941;28;20274;-67
2023/01/22 15:28:41;;;;;;;1.70;1.47;;;3.10;99.90;4.70;103046.00;;;;5032484;28;20226;-67
2023/01/22 15:31:13;;;;;;;0.73;0.73;;;3.40;99.90;5.60;103053.00;;;;5035063;28;20187;-67
2023/01/22 15:34:18;;;;;;;2.83;1.90;;;3.50;99.90;4.90;103057.00;;;;5035659;28;20195;-67
2023/01/22 15:37:14;;;;;;;0.50;0.50;;;3.40;99.90;5.40;103064.00;;;;5033544;28;20179;-67
2023/01/22 15:40:36;;;;;;;0.30;0.30;;;3.60;99.90;4.70;103040.00;;;;5041796;28;20653;-67
2023/01/22 15:43:59;;;;;;;0.60;0.60;;;3.30;99.90;4.70;103007.00;;;;5010727;28;20527;-67
2023/01/22 15:47:16;;;;;;;2.43;1.20;;;3.40;99.90;4.70;103050.00;;;;5029086;28;20194;-67
2023/01/22 15:50:34;;;;;;;15.30;1.47;;;3.30;99.90;5.00;103040.00;;;;5034186;28;20189;-67
2023/01/22 15:53:49;;;;;;;2.30;1.80;;;3.30;99.90;4.70;103050.00;;;;5045725;28;20199;-67
2023/01/22 15:56:38;;;;;;;2.77;2.50;;;3.20;99.90;4.90;103054.00;;;;5034150;28;20253;-67
2023/01/22 15:59:15;;;;;;;0.63;0.63;;;3.30;99.90;4.70;103044.00;;;;5042677;28;20186;-70
2023/01/22 16:01:41;;;;;;;0.60;0.60;;;3.30;99.90;4.30;103055.00;;;;5034159;28;20538;-66
2023/01/22 16:04:08;;;;;;;4.13;2.50;;;3.10;99.90;4.00;103003.00;;;;5034131;28;20198;-67
2023/01/22 16:06:34;;;;;;;1.80;1.50;;;3.00;99.90;4.00;103006.00;;;;5051300;28;20191;-66
2023/01/22 16:09:06;;;;;;;1.07;0.87;;;3.00;99.90;4.30;103047.00;;;;5035444;28;20179;-66
2023/01/22 16:11:33;;;;;;;8.33;1.43;;;3.00;99.90;4.60;103048.00;;;;5033138;28;20203;-67
2023/01/22 16:14:00;;;;;;;2.17;2.07;;;3.00;99.90;4.00;103046.00;;;;5017433;28;20190;-67
2023/01/22 16:16:35;;;;;;;1.77;1.67;;;2.90;99.90;4.10;103047.00;;;;5034009;28;20190;-67
2023/01/22 16:19:26;;;;;;;0.43;0.37;;;2.90;99.90;3.90;103000.00;;;;5033469;28;20638;-67
2023/01/22 16:21:57;;;;;;;1.60;1.50;;;2.80;99.90;4.00;103032.00;;;;5029274;28;20709;-67
2023/01/22 16:24:46;;;;;;;1.07;1.07;;;2.80;99.90;4.40;103043.00;;;;5035250;28;20225;-67
2023/01/22 16:27:43;;;;;;;3.13;2.80;;;2.90;99.90;3.90;103024.00;;;;5034341;28;20183;-66
2023/01/22 16:30:29;;;;;;;1.30;0.90;;;2.90;99.90;4.80;103050.00;;;;5025580;28;20179;-67
2023/01/22 16:33:35;;;;;;;0.50;0.50;;;3.20;99.90;4.50;103044.00;;;;5025610;28;20230;-66
2023/01/22 16:36:11;;;;;;;0.47;0.47;;;3.10;99.90;4.50;103048.00;;;;5043020;28;20179;-65
2023/01/22 16:38:45;;;;;;;3.13;2.93;;;3.20;99.90;4.30;103047.00;;;;5030478;28;20213;-65
2023/01/22 16:41:17;;;;;;;1.20;1.20;;;3.10;99.90;4.40;103047.00;;;;5033184;28;20186;-66
2023/01/22 16:43:48;;;;;;;0.50;0.50;;;3.00;99.90;4.50;103049.00;;;;5030259;28;20187;-66
2023/01/22 16:46:22;;;;;;;1.53;1.53;;;3.00;99.90;4.30;103048.00;;;;5032967;28;20186;-66
2023/01/22 16:48:48;;;;;;;0.47;0.47;;;3.00;99.90;4.30;103046.00;;;;5033158;28;20191;-65
2023/01/22 16:51:20;;;;;;;0.33;0.33;;;2.90;99.90;5.20;103053.00;;;;5032289;28;20209;-76
2023/01/22 16:54:19;;;;;;;0.50;0.50;;;3.10;99.90;5.10;103038.00;;;;5054873;28;20183;-66
2023/01/22 16:56:54;;;;;;;0.90;0.90;;;3.30;99.90;5.50;103066.00;;;;5049835;28;20242;-66
2023/01/22 16:59:35;;;;;;;0.40;0.40;;;3.40;99.90;4.70;103059.00;;;;5020621;28;20261;-64
2023/01/22 17:03:02;;;;;;;0.70;0.70;;;3.40;99.90;5.00;103076.00;;;;5032371;28;20230;-65
2023/01/22 17:06:11;;;;;;;0.53;0.53;;;3.40;99.90;5.10;103070.00;;;;5032247;28;20289;-65
2023/01/22 17:09:41;;;;;;;0.97;0.93;;;3.40;99.90;5.20;103076.00;;;;5033038;28;20206;-65
2023/01/22 17:12:32;;;;;;;1.40;1.30;;;3.40;99.90;4.40;103069.00;;;;5010354;28;20686;-67
2023/01/22 17:15:25;;;;;;;0.97;0.93;;;3.20;99.90;4.30;103053.00;;;;5029487;28;20178;-68
2023/01/22 17:18:08;;;;;;;2.10;2.00;;;3.10;99.90;4.10;103050.00;;;;5032459;28;20183;-68
2023/01/22 17:21:11;;;;;;;1.87;1.77;;;3.00;99.90;3.90;103049.00;;;;5033957;28;20278;-66
2023/01/22 17:23:55;;;;;;;0.40;0.40;;;2.90;99.90;4.00;103054.00;;;;5026128;28;20186;-66
2023/01/22 17:26:40;;;;;;;2.50;2.30;;;2.90;99.90;5.00;103020.00;;;;5064245;28;20189;-67
2023/01/22 17:29:35;;;;;;;2.93;2.73;;;3.20;99.90;4.90;103069.00;;;;5059868;28;20187;-67
2023/01/22 17:32:19;;;;;;;0.50;0.50;;;3.20;99.90;4.60;103067.00;;;;5029419;28;20215;-66
2023/01/22 17:35:25;;;;;;;2.83;1.40;;;3.20;99.90;4.70;103038.00;;;;5036862;28;20616;-66
2023/01/22 17:37:53;;;;;;;0.50;0.50;;;3.30;99.90;4.80;103078.00;;;;5043912;28;20229;-66
2023/01/22 17:40:28;;;;;;;0.80;0.80;;;3.20;99.90;4.50;103067.00;;;;5029711;28;20183;-66
2023/01/22 17:42:58;;;;;;;0.20;0.20;;;3.10;99.90;4.60;103076.00;;;;5028733;28;20186;-66
2023/01/22 17:45:24;;;;;;;2.60;2.40;;;3.10;99.90;4.70;103084.00;;;;5024190;28;20654;-66
2023/01/22 17:47:55;;;;;;;0.30;0.30;;;3.20;99.90;4.80;103080.00;;;;5015995;28;20320;-66
2023/01/22 17:50:52;;;;;;;3.23;3.03;;;3.20;99.90;4.50;103079.00;;;;5032248;28;20183;-66
2023/01/22 17:53:56;;;;;;;0.30;0.30;;;3.10;99.90;5.10;103088.00;;;;5030958;28;20211;-66
2023/01/22 17:56:41;;;;;;;0.30;0.30;;;3.40;99.90;5.20;103079.00;;;;5031863;28;20190;-69
2023/01/22 17:59:28;;;;;;;1.60;1.50;;;3.40;99.90;5.20;103090.00;;;;5031861;28;20178;-67
2023/01/22 18:02:11;;;;;;;1.23;1.23;;;3.50;99.90;5.30;103065.00;;;;5026281;28;20198;-66
2023/01/22 18:04:57;;;;;;;0.97;0.97;;;3.60;99.90;4.90;103063.00;;;;5033116;28;20178;-66
2023/01/22 18:07:40;;;;;;;0.97;0.97;;;3.40;99.90;5.50;103101.00;;;;5018187;28;20186;-66
2023/01/22 18:10:32;;;;;;;0.30;0.30;;;3.50;99.90;4.70;103100.00;;;;5032939;28;20182;-65
2023/01/22 18:13:05;;;;;;;0.30;0.30;;;3.30;99.90;4.90;103061.00;;;;5031307;28;20206;-66
2023/01/22 18:15:58;;;;;;;2.00;1.33;;;3.40;99.90;4.80;103109.00;;;;5037406;28;20190;-66
2023/01/22 18:18:29;;;;;;;1.37;1.27;;;3.30;99.90;4.80;103106.00;;;;5025733;28;20186;-66
2023/01/22 18:21:00;;;;;;;0.73;0.73;;;3.30;99.90;5.00;103093.00;;;;5031265;28;20238;-66
2023/01/22 18:23:29;;;;;;;0.50;0.50;;;3.40;99.90;5.00;103097.00;;;;5029659;28;20273;-66
2023/01/22 18:25:57;;;;;;;0.70;0.70;;;3.30;99.90;5.40;103112.00;;;;5043957;28;20194;-66
2023/01/22 18:28:25;;;;;;;0.50;0.50;;;3.60;99.90;5.50;103118.00;;;;5032484;28;20189;-66
2023/01/22 18:31:15;;;;;;;0.30;0.30;;;3.60;99.90;6.00;103105.00;;;;5015408;28;20697;-66
2023/01/22 18:33:47;;;;;;;0.30;0.30;;;3.70;99.90;5.60;103117.00;;;;5015143;28;20194;-66
2023/01/22 18:36:20;;;;;;;2.13;1.93;;;3.60;99.90;4.70;103106.00;;;;5031693;28;20191;-66
2023/01/22 18:38:52;;;;;;;3.20;1.97;;;3.40;99.90;4.60;103105.00;;;;5031579;28;20194;-66
2023/01/22 18:41:23;;;;;;;1.57;1.47;;;3.20;99.90;4.40;103116.00;;;;5031709;28;20183;-66
2023/01/22 18:43:57;;;;;;;0.83;0.83;;;3.10;99.90;4.10;103098.00;;;;5031335;28;20190;-66
2023/01/22 18:46:27;;;;;;;1.00;1.00;;;3.00;99.90;4.10;103093.00;;;;5031749;28;20633;-66
2023/01/22 18:49:21;;;;;;;0.50;0.50;;;3.00;99.90;4.30;103074.00;;;;5031531;28;20614;-66
2023/01/22 18:51:50;;;;;;;4.40;2.67;;;2.80;99.90;4.10;103080.00;;;;5029113;28;20207;-66
2023/01/22 18:54:33;;;;;;;0.83;0.83;;;2.90;99.90;4.40;103058.00;;;;5029082;28;20676;-66
2023/01/22 18:56:59;;;;;;;1.23;1.03;;;3.00;99.90;4.30;103069.00;;;;5030790;28;20183;-66
2023/01/22 18:59:30;;;;;;;0.30;0.30;;;3.00;99.90;4.30;103072.00;;;;5035574;28;20692;-66
2023/01/22 19:02:20;;;;;;;0.30;0.30;;;2.90;99.90;4.70;103095.00;;;;5033507;28;20541;-65
2023/01/22 19:05:27;;;;;;;0.30;0.30;;;3.10;99.90;5.00;103095.00;;;;5033207;28;20190;-66
2023/01/22 19:08:38;;;;;;;0.30;0.30;;;3.30;99.90;4.50;103078.00;;;;5026727;28;20190;-66
2023/01/22 19:11:45;;;;;;;1.20;0.63;;;3.10;99.90;5.10;103094.00;;;;5054619;28;20271;-65
2023/01/22 19:14:56;;;;;;;1.70;1.17;;;3.20;99.90;4.50;103083.00;;;;5015613;28;20187;-66
2023/01/22 19:18:11;;;;;;;1.47;1.07;;;3.10;99.90;4.50;103090.00;;;;5029702;28;20858;-66
2023/01/22 19:21:36;;;;;;;0.80;0.73;;;3.10;99.90;4.10;103077.00;;;;5031372;28;20182;-66
2023/01/22 19:28:41;;;;;;;3.90;3.23;;;2.80;99.90;4.50;103069.00;;;;5025481;28;20268;-66
2023/01/22 19:31:52;;;;;;;2.50;1.27;;;3.00;99.90;4.40;103077.00;;;;5034921;28;20183;-66
2023/01/22 19:35:00;;;;;;;2.73;2.63;;;2.90;99.90;4.50;103084.00;;;;5045098;28;20699;-66
2023/01/22 19:38:01;;;;;;;4.03;1.53;;;3.10;99.90;4.60;103039.00;;;;5047671;28;20188;-66
2023/01/22 19:41:20;;;;;;;1.33;1.23;;;3.10;99.90;4.60;103096.00;;;;5022744;28;20635;-66
2023/01/22 19:44:40;;;;;;;0.30;0.30;;;3.20;99.90;4.30;103091.00;;;;5011363;28;20194;-66
2023/01/22 19:48:05;;;;;;;0.30;0.30;;;3.10;99.90;5.70;103099.00;;;;5032752;28;20249;-66
2023/01/22 19:51:29;;;;;;;1.30;1.20;;;3.30;99.90;4.50;103112.00;;;;5017935;28;20190;-66
2023/01/22 19:54:58;;;;;;;0.93;0.93;;;3.40;99.90;4.70;103112.00;;;;5035083;28;20551;-66
2023/01/22 19:57:29;;;;;;;1.73;1.63;;;3.30;99.90;5.10;103109.00;;;;5034318;28;20304;-67
2023/01/22 19:59:58;;;;;;;0.30;0.30;;;3.40;99.90;4.80;103068.00;;;;5035322;28;20195;-66
2023/01/22 20:02:27;;;;;;;0.40;0.40;;;3.30;99.90;4.60;103113.00;;;;5043064;28;20282;-66
2023/01/22 20:05:28;;;;;;;4.50;1.77;;;3.30;99.90;4.80;103116.00;;;;5032897;28;20207;-66
2023/01/22 20:08:37;;;;;;;9.77;4.80;;;3.30;99.90;3.80;103102.00;;;;5065228;28;20190;-67
2023/01/22 20:11:52;;;;;;;1.10;1.00;;;3.00;99.90;3.60;103100.00;;;;5032863;28;20186;-67
2023/01/22 20:14:24;;;;;;;6.93;3.40;;;2.90;99.90;3.70;103101.00;;;;5033950;28;20198;-66
2023/01/22 20:17:15;;;;;;;1.73;1.63;;;2.80;99.90;4.30;103106.00;;;;5033588;28;20252;-67
2023/01/22 20:20:13;;;;;;;2.47;2.13;;;2.90;99.90;4.40;103074.00;;;;5031293;28;20226;-66
2023/01/22 20:23:07;;;;;;;0.87;0.87;;;2.90;99.90;4.40;103114.00;;;;5034328;28;20285;-66
2023/01/22 20:25:42;;;;;;;1.60;0.80;;;3.10;99.90;4.10;103098.00;;;;5033970;28;20630;-66
2023/01/22 20:28:55;;;;;;;1.77;1.67;;;3.00;99.90;3.80;103116.00;;;;5034013;28;20209;-66
2023/01/22 20:32:06;;;;;;;0.53;0.53;;;2.90;99.90;3.80;103109.00;;;;5026780;28;20218;-66
2023/01/22 20:35:14;;;;;;;0.60;0.60;;;2.80;99.90;4.30;103114.00;;;;5033574;28;20248;-66